Terminal Aerodrome Forecast
Issued by NWS

Home | Current Version | Previous Version | Text Only | Print | Product List | Glossary On
Versions: 1 2 3 4 5 6 7 8 9 10 11 12 13 14 15 16 17 18 19 20
000
FTAK31 PAJN 051120
TAFAPG
TAF
PAPG 051120Z 0512/0612 00000KT 2SM BR SCT003 SCT007
      TEMPO 0512/0516 1/2SM FG BKN001
     FM051800 06005KT P6SM SCT025 SCT060
     FM060500 VRB04KT P6SM BKN060
     FM061000 00000KT 6SM BCFG SCT003 SCT025 BKN080=

USA.gov is the U.S. government's official web portal to all federal, state and local government web resources and services.